Time;durP1;ratioP1;P1;durP2;ratioP2;P2;SDS_P1;SDS_P2;PMS_P1;PMS_P2;Temp;Humidity;BMP_temperature;BMP_pressure;BME280_temperature;BME280_humidity;BME280_pressure;Samples;Min_cycle;Max_cycle;Signal;HPM_P1;HPM_P2
2023/01/14 00:01:06;;;;;;;21.10;3.75;;;;;;;;;;6165988;23;20020;-93
2023/01/14 00:03:32;;;;;;;17.05;3.30;;;;;;;;;;6189597;23;20511;-92
2023/01/14 00:05:59;;;;;;;21.27;3.22;;;;;;;;;;6163877;23;20084;-92
2023/01/14 00:08:38;;;;;;;21.13;2.95;;;;;;;;;;6200298;22;20067;-93
2023/01/14 00:11:05;;;;;;;7.70;1.45;;;;;;;;;;6163893;23;20019;-93
2023/01/14 00:13:35;;;;;;;31.65;3.47;;;;;;;;;;6192503;23;20009;-93
2023/01/14 00:16:02;;;;;;;23.02;3.42;;;;;;;;;;6167400;23;20502;-92
2023/01/14 00:18:30;;;;;;;25.27;3.13;;;;;;;;;;6191401;23;20008;-93
2023/01/14 00:20:59;;;;;;;14.45;2.47;;;;;;;;;;6191684;23;20369;-93
2023/01/14 00:23:28;;;;;;;24.65;3.33;;;;;;;;;;6190876;23;20012;-93
2023/01/14 00:26:00;;;;;;;19.80;2.45;;;;;;;;;;6189153;23;20009;-92
2023/01/14 00:28:26;;;;;;;24.48;3.55;;;;;;;;;;6217851;23;20019;-93
2023/01/14 00:30:52;;;;;;;28.00;3.03;;;;;;;;;;6167358;23;20008;-93
2023/01/14 00:33:19;;;;;;;16.13;2.47;;;;;;;;;;6168062;23;20051;-92
2023/01/14 00:35:52;;;;;;;29.08;3.47;;;;;;;;;;6166490;23;20016;-92
2023/01/14 00:38:18;;;;;;;20.77;3.00;;;;;;;;;;6192293;23;20031;-93
2023/01/14 00:40:44;;;;;;;23.05;3.35;;;;;;;;;;6168705;23;20008;-93
2023/01/14 00:43:10;;;;;;;19.05;4.82;;;;;;;;;;6169195;23;20013;-93
2023/01/14 00:45:36;;;;;;;16.67;3.17;;;;;;;;;;6167386;23;20015;-93
2023/01/14 00:48:02;;;;;;;30.00;3.63;;;;;;;;;;6193662;23;20099;-93
2023/01/14 00:50:28;;;;;;;13.48;2.58;;;;;;;;;;6193593;23;20099;-93
2023/01/14 00:52:54;;;;;;;10.77;1.73;;;;;;;;;;6193206;23;20008;-92
2023/01/14 00:55:21;;;;;;;15.20;2.13;;;;;;;;;;6167839;23;20059;-92
2023/01/14 00:57:47;;;;;;;22.52;2.88;;;;;;;;;;6191023;23;20365;-92
2023/01/14 01:00:13;;;;;;;22.45;3.85;;;;;;;;;;6169544;23;20009;-93
2023/01/14 01:02:40;;;;;;;26.95;3.65;;;;;;;;;;6170216;23;20028;-93
2023/01/14 01:05:06;;;;;;;12.82;2.40;;;;;;;;;;6169796;23;20008;-93
2023/01/14 01:07:32;;;;;;;12.27;2.28;;;;;;;;;;6192530;23;20083;-93
2023/01/14 01:10:12;;;;;;;18.25;3.90;;;;;;;;;;6221394;22;20016;-93
2023/01/14 01:12:39;;;;;;;37.75;4.00;;;;;;;;;;6169599;22;20009;-93
2023/01/14 01:15:05;;;;;;;21.15;2.88;;;;;;;;;;6163385;23;20013;-93
2023/01/14 01:17:31;;;;;;;19.90;4.50;;;;;;;;;;6162898;23;20019;-93
2023/01/14 01:19:57;;;;;;;26.25;2.67;;;;;;;;;;6185624;23;20393;-92
2023/01/14 01:22:23;;;;;;;24.63;3.25;;;;;;;;;;6162155;23;20032;-93
2023/01/14 01:24:52;;;;;;;28.38;3.33;;;;;;;;;;6162965;23;20437;-92
2023/01/14 01:27:21;;;;;;;17.30;1.52;;;;;;;;;;6187252;23;20346;-93
2023/01/14 01:29:47;;;;;;;38.85;3.78;;;;;;;;;;6161874;23;20017;-92
2023/01/14 01:32:15;;;;;;;17.13;1.48;;;;;;;;;;6161123;23;20017;-92
2023/01/14 01:34:41;;;;;;;12.52;2.22;;;;;;;;;;6162226;23;20017;-93
2023/01/14 01:37:07;;;;;;;10.85;2.22;;;;;;;;;;6161364;23;20346;-92
2023/01/14 01:39:33;;;;;;;12.25;2.35;;;;;;;;;;6186106;23;20051;-93
2023/01/14 01:41:59;;;;;;;29.98;3.22;;;;;;;;;;6189487;23;20001;-93
2023/01/14 01:44:26;;;;;;;24.67;3.67;;;;;;;;;;6163069;23;20068;-93
2023/01/14 01:46:52;;;;;;;18.83;3.20;;;;;;;;;;6188790;23;20009;-93
2023/01/14 01:49:22;;;;;;;24.38;3.03;;;;;;;;;;6164806;23;20013;-93
2023/01/14 01:51:52;;;;;;;31.75;5.10;;;;;;;;;;6189636;23;20460;-93
2023/01/14 01:54:20;;;;;;;8.40;1.63;;;;;;;;;;6189213;23;20013;-92
2023/01/14 01:56:49;;;;;;;20.08;3.22;;;;;;;;;;6189603;23;20005;-93
2023/01/14 01:59:21;;;;;;;13.25;2.78;;;;;;;;;;6161631;23;20092;-93
2023/01/14 02:01:48;;;;;;;16.50;2.92;;;;;;;;;;6188747;23;20016;-93
2023/01/14 02:04:14;;;;;;;13.13;1.58;;;;;;;;;;6161276;23;20009;-93
2023/01/14 02:06:40;;;;;;;20.30;3.25;;;;;;;;;;6183698;23;20148;-92
2023/01/14 02:09:07;;;;;;;18.90;3.05;;;;;;;;;;6185991;23;20352;-92
2023/01/14 02:12:02;;;;;;;30.90;3.67;;;;;;;;;;6162742;22;20593;-92
2023/01/14 02:14:29;;;;;;;29.25;4.22;;;;;;;;;;6142134;23;20016;-92
2023/01/14 02:17:08;;;;;;;35.55;2.58;;;;;;;;;;6189741;23;20108;-91
2023/01/14 02:19:57;;;;;;;26.15;3.20;;;;;;;;;;6190300;23;20395;-92
2023/01/14 02:22:23;;;;;;;15.80;2.10;;;;;;;;;;6215262;23;20019;-92
2023/01/14 02:24:55;;;;;;;25.50;2.92;;;;;;;;;;6189035;23;20245;-92
2023/01/14 02:27:41;;;;;;;16.27;2.72;;;;;;;;;;6215346;23;20023;-92
2023/01/14 02:30:13;;;;;;;16.38;2.40;;;;;;;;;;6185076;23;20332;-91
2023/01/14 02:32:42;;;;;;;29.25;2.60;;;;;;;;;;6192992;23;20016;-93
2023/01/14 02:35:15;;;;;;;25.23;2.50;;;;;;;;;;6191635;23;20019;-93
2023/01/14 02:37:52;;;;;;;19.73;3.17;;;;;;;;;;6187270;23;20421;-93
2023/01/14 02:40:20;;;;;;;28.10;3.42;;;;;;;;;;6191642;23;20009;-93
2023/01/14 02:45:41;;;;;;;19.55;3.33;;;;;;;;;;6218264;23;20040;-92
2023/01/14 02:48:07;;;;;;;36.95;3.83;;;;;;;;;;6194616;23;20008;-93
2023/01/14 02:50:35;;;;;;;23.17;3.05;;;;;;;;;;6167024;23;20399;-92
2023/01/14 02:53:07;;;;;;;24.98;2.85;;;;;;;;;;6167417;23;20013;-95
2023/01/14 02:55:34;;;;;;;16.33;2.58;;;;;;;;;;6193801;23;20051;-93
2023/01/14 02:58:17;;;;;;;27.40;4.35;;;;;;;;;;6192415;23;20009;-92
2023/01/14 03:01:00;;;;;;;21.15;2.38;;;;;;;;;;6217137;23;20005;-93
2023/01/14 03:03:37;;;;;;;9.30;1.70;;;;;;;;;;6192559;23;20016;-93
2023/01/14 03:06:12;;;;;;;22.35;3.08;;;;;;;;;;6191398;23;20109;-93
2023/01/14 03:08:47;;;;;;;8.90;1.80;;;;;;;;;;6190485;23;20004;-93
2023/01/14 03:11:14;;;;;;;18.97;4.97;;;;;;;;;;6190686;22;20024;-94
2023/01/14 03:13:46;;;;;;;24.23;3.42;;;;;;;;;;6163524;23;20558;-94
2023/01/14 03:16:15;;;;;;;23.05;2.58;;;;;;;;;;6187037;23;20348;-93
2023/01/14 03:19:00;;;;;;;22.98;3.50;;;;;;;;;;6187535;23;20033;-93
2023/01/14 03:21:35;;;;;;;23.40;3.00;;;;;;;;;;6189184;23;20473;-94
2023/01/14 03:24:07;;;;;;;32.42;2.95;;;;;;;;;;6188694;23;20091;-93
2023/01/14 03:26:34;;;;;;;6.38;2.13;;;;;;;;;;6189379;23;20012;-94
2023/01/14 03:29:02;;;;;;;15.73;2.65;;;;;;;;;;6194895;23;20070;-93
2023/01/14 03:31:30;;;;;;;32.83;4.20;;;;;;;;;;6194930;23;20009;-94
2023/01/14 03:34:01;;;;;;;41.03;4.85;;;;;;;;;;6194527;23;20016;-94
2023/01/14 03:36:29;;;;;;;14.40;2.13;;;;;;;;;;6193306;23;20062;-95
2023/01/14 03:39:00;;;;;;;25.15;3.92;;;;;;;;;;6193384;23;20039;-93
2023/01/14 03:44:18;;;;;;;18.77;3.10;;;;;;;;;;6218595;23;20023;-94
2023/01/14 03:46:44;;;;;;;25.38;3.67;;;;;;;;;;6191882;23;20451;-94
2023/01/14 03:49:13;;;;;;;24.50;3.20;;;;;;;;;;6169247;23;20009;-94
2023/01/14 03:52:15;;;;;;;18.77;2.83;;;;;;;;;;6192995;23;20013;-94
2023/01/14 03:55:05;;;;;;;17.88;3.42;;;;;;;;;;6072667;23;20478;-94
2023/01/14 03:57:41;;;;;;;18.02;3.20;;;;;;;;;;6186959;23;20016;-94
2023/01/14 04:00:17;;;;;;;18.25;3.15;;;;;;;;;;6167409;23;20424;-93
2023/01/14 04:02:44;;;;;;;14.02;2.45;;;;;;;;;;6193504;23;20540;-93
2023/01/14 04:05:11;;;;;;;26.92;4.15;;;;;;;;;;6165886;23;20029;-93
2023/01/14 04:07:37;;;;;;;37.17;3.72;;;;;;;;;;6191243;23;20009;-92
2023/01/14 04:10:03;;;;;;;15.38;3.20;;;;;;;;;;6168700;23;20012;-93
2023/01/14 04:12:33;;;;;;;19.20;2.70;;;;;;;;;;6224881;22;20013;-94
2023/01/14 04:17:46;;;;;;;22.20;2.75;;;;;;;;;;6197489;23;20015;-93
2023/01/14 04:20:12;;;;;;;17.73;3.30;;;;;;;;;;6166365;23;20372;-94
2023/01/14 04:22:39;;;;;;;15.98;2.13;;;;;;;;;;6167670;23;20020;-94
2023/01/14 04:25:05;;;;;;;17.10;2.33;;;;;;;;;;6192107;23;20463;-94
2023/01/14 04:27:31;;;;;;;34.78;4.25;;;;;;;;;;6192851;23;20005;-94
2023/01/14 04:29:57;;;;;;;13.15;2.25;;;;;;;;;;6166821;23;20012;-93
2023/01/14 04:32:23;;;;;;;23.10;2.60;;;;;;;;;;6189957;23;20012;-93
2023/01/14 04:34:49;;;;;;;17.20;2.97;;;;;;;;;;6165449;23;20013;-93
2023/01/14 04:37:15;;;;;;;20.52;2.78;;;;;;;;;;6190833;23;20027;-93
2023/01/14 04:39:41;;;;;;;33.33;3.40;;;;;;;;;;6165578;23;20020;-93
2023/01/14 04:42:27;;;;;;;36.90;3.55;;;;;;;;;;6164942;23;20080;-93
2023/01/14 04:44:53;;;;;;;27.58;3.60;;;;;;;;;;6190435;23;20031;-94
2023/01/14 04:47:21;;;;;;;18.00;2.65;;;;;;;;;;6190618;23;20008;-93
2023/01/14 04:49:50;;;;;;;26.20;3.65;;;;;;;;;;6166096;23;20028;-94
2023/01/14 04:52:19;;;;;;;29.10;2.88;;;;;;;;;;6190564;23;20036;-94
2023/01/14 04:54:45;;;;;;;12.98;1.98;;;;;;;;;;6193612;23;20032;-95
2023/01/14 04:57:15;;;;;;;32.78;4.20;;;;;;;;;;6194279;23;20433;-95
2023/01/14 04:59:41;;;;;;;17.83;2.58;;;;;;;;;;6196405;23;20008;-94
2023/01/14 05:02:07;;;;;;;22.80;4.25;;;;;;;;;;6198184;23;20001;-94
2023/01/14 05:04:36;;;;;;;20.25;3.60;;;;;;;;;;6198209;23;20398;-95
2023/01/14 05:07:05;;;;;;;17.10;2.08;;;;;;;;;;6197793;23;20444;-95
2023/01/14 05:09:31;;;;;;;14.63;2.28;;;;;;;;;;6197942;23;20032;-95
2023/01/14 05:12:00;;;;;;;30.35;3.78;;;;;;;;;;6195833;22;20338;-94
2023/01/14 05:14:26;;;;;;;19.98;3.25;;;;;;;;;;6198059;23;20132;-94
2023/01/14 05:16:56;;;;;;;26.55;3.40;;;;;;;;;;6172959;23;20016;-95
2023/01/14 05:19:22;;;;;;;5.25;1.50;;;;;;;;;;6173156;23;20412;-95
2023/01/14 05:21:48;;;;;;;9.57;2.03;;;;;;;;;;6196924;23;20056;-96
2023/01/14 05:24:14;;;;;;;10.30;1.75;;;;;;;;;;6197300;23;20000;-95
2023/01/14 05:26:40;;;;;;;17.33;2.75;;;;;;;;;;6172638;23;20008;-96
2023/01/14 05:29:06;;;;;;;8.60;0.75;;;;;;;;;;6197090;23;20019;-95
2023/01/14 05:31:32;;;;;;;20.08;2.38;;;;;;;;;;6171370;23;20016;-95
2023/01/14 05:33:59;;;;;;;31.05;3.13;;;;;;;;;;6171303;23;20004;-95
2023/01/14 05:36:26;;;;;;;11.18;2.15;;;;;;;;;;6171079;23;20019;-95
2023/01/14 05:38:59;;;;;;;14.98;2.50;;;;;;;;;;6170423;23;20688;-95
2023/01/14 05:41:26;;;;;;;21.90;2.13;;;;;;;;;;6195872;23;20004;-95
2023/01/14 05:46:36;;;;;;;20.77;2.58;;;;;;;;;;6220366;23;20028;-95
2023/01/14 05:49:03;;;;;;;11.70;1.67;;;;;;;;;;6169574;23;20040;-94
2023/01/14 05:51:29;;;;;;;11.15;1.73;;;;;;;;;;6192335;23;20019;-95
2023/01/14 05:53:55;;;;;;;14.07;3.17;;;;;;;;;;6168313;23;20337;-94
2023/01/14 05:56:21;;;;;;;8.95;2.17;;;;;;;;;;6192949;23;20012;-94
2023/01/14 05:58:47;;;;;;;7.90;2.80;;;;;;;;;;6188535;23;20013;-94
2023/01/14 06:06:47;;;;;;;21.25;2.55;;;;;;;;;;6198084;23;20093;-95
2023/01/14 06:09:14;;;;;;;34.00;2.83;;;;;;;;;;6170831;23;20448;-94
2023/01/14 06:11:43;;;;;;;28.50;3.42;;;;;;;;;;6172460;22;20345;-95
2023/01/14 06:14:11;;;;;;;29.00;3.08;;;;;;;;;;6170644;23;20429;-94
2023/01/14 06:16:40;;;;;;;12.15;2.33;;;;;;;;;;6168570;23;20440;-94
2023/01/14 06:19:07;;;;;;;23.50;3.88;;;;;;;;;;6191748;23;20009;-92
2023/01/14 06:21:41;;;;;;;23.30;3.08;;;;;;;;;;6166389;23;20013;-94
2023/01/14 06:24:08;;;;;;;13.45;2.85;;;;;;;;;;6197194;23;20020;-94
2023/01/14 06:26:35;;;;;;;16.25;3.55;;;;;;;;;;6194062;23;20001;-95
2023/01/14 06:29:06;;;;;;;23.60;3.10;;;;;;;;;;6195195;23;20019;-95
2023/01/14 06:31:42;;;;;;;10.32;2.17;;;;;;;;;;6192345;23;20087;-96
2023/01/14 06:34:09;;;;;;;22.52;3.08;;;;;;;;;;6201088;23;20012;-96
2023/01/14 06:36:41;;;;;;;27.83;3.65;;;;;;;;;;6199678;23;20009;-96
2023/01/14 06:39:08;;;;;;;21.98;3.35;;;;;;;;;;6174497;23;20074;-96
2023/01/14 06:41:54;;;;;;;18.65;3.70;;;;;;;;;;6198710;23;20001;-96
2023/01/14 06:47:15;;;;;;;20.67;2.38;;;;;;;;;;6204314;23;20017;-96
2023/01/14 06:49:42;;;;;;;6.80;2.17;;;;;;;;;;6173506;23;20070;-96
2023/01/14 06:52:10;;;;;;;43.92;4.72;;;;;;;;;;6199711;23;20004;-96
2023/01/14 06:54:47;;;;;;;18.25;3.05;;;;;;;;;;6174935;23;20433;-96
2023/01/14 06:57:15;;;;;;;19.92;2.97;;;;;;;;;;6200449;23;20016;-96
2023/01/14 06:59:42;;;;;;;18.35;3.78;;;;;;;;;;6200251;23;20259;-96
2023/01/14 07:02:10;;;;;;;25.35;4.32;;;;;;;;;;6173577;23;20005;-96
2023/01/14 07:04:39;;;;;;;14.85;3.67;;;;;;;;;;6199500;23;20011;-96
2023/01/14 07:07:08;;;;;;;28.70;4.82;;;;;;;;;;6198594;23;20005;-96
2023/01/14 07:09:42;;;;;;;19.98;4.20;;;;;;;;;;6199871;23;20011;-96
2023/01/14 07:12:14;;;;;;;30.73;3.78;;;;;;;;;;6209005;22;20020;-96
2023/01/14 07:17:58;;;;;;;13.38;3.45;;;;;;;;;;6194885;23;20012;-96
2023/01/14 07:20:28;;;;;;;17.88;3.72;;;;;;;;;;6176218;23;20467;-96
2023/01/14 07:22:58;;;;;;;38.97;5.38;;;;;;;;;;6175021;23;20009;-96
2023/01/14 07:25:41;;;;;;;15.00;3.83;;;;;;;;;;6174940;23;20004;-96
2023/01/14 07:34:25;;;;;;;27.58;4.45;;;;;;;;;;6227042;23;20325;-96
2023/01/14 07:37:00;;;;;;;31.30;5.97;;;;;;;;;;6178370;23;20311;-96
2023/01/14 07:39:57;;;;;;;9.02;3.42;;;;;;;;;;6178427;23;20013;-96
2023/01/14 07:42:46;;;;;;;11.13;2.65;;;;;;;;;;6201329;23;20036;-96
2023/01/14 09:02:33;;;;;;;8.77;1.98;;;;;;;;;;6254526;22;20067;-94
2023/01/14 09:39:22;;;;;;;;;;;;;;;;;;6281413;22;20043;-94
2023/01/14 09:41:59;;;;;;;24.45;3.33;;;;;;;;;;6251106;22;19899;-93
2023/01/14 09:44:25;;;;;;;16.63;2.67;;;;;;;;;;6252558;22;20018;-95
2023/01/14 09:47:28;;;;;;;12.60;1.98;;;;;;;;;;6228436;22;20012;-96
2023/01/14 09:49:54;;;;;;;7.80;1.63;;;;;;;;;;6130378;23;20065;-93
2023/01/14 09:52:26;;;;;;;19.35;2.88;;;;;;;;;;6230053;22;20007;-92
2023/01/14 09:55:15;;;;;;;8.93;1.33;;;;;;;;;;6254998;22;19996;-93
2023/01/14 09:57:53;;;;;;;10.70;2.55;;;;;;;;;;6251089;22;20008;-94
2023/01/14 10:00:22;;;;;;;11.45;2.17;;;;;;;;;;6251978;22;20243;-92
2023/01/14 10:02:54;;;;;;;6.80;1.80;;;;;;;;;;6252058;22;20429;-92
2023/01/14 10:05:32;;;;;;;7.85;1.88;;;;;;;;;;6250066;22;20003;-93
2023/01/14 10:08:00;;;;;;;9.68;2.38;;;;;;;;;;6249657;22;20527;-92
2023/01/14 10:10:31;;;;;;;8.63;2.10;;;;;;;;;;6248939;22;20347;-93
2023/01/14 10:13:02;;;;;;;9.48;1.98;;;;;;;;;;6248414;22;20010;-93
2023/01/14 10:15:56;;;;;;;10.20;1.67;;;;;;;;;;6276334;22;20011;-92
2023/01/14 10:18:26;;;;;;;8.70;2.28;;;;;;;;;;6248701;22;20011;-91
2023/01/14 10:20:57;;;;;;;10.10;2.13;;;;;;;;;;6247864;22;20003;-93
2023/01/14 10:23:32;;;;;;;5.32;2.03;;;;;;;;;;6247382;22;20050;-92
2023/01/14 10:26:10;;;;;;;10.93;2.03;;;;;;;;;;6247363;22;20015;-91
2023/01/14 10:28:36;;;;;;;17.45;2.80;;;;;;;;;;6247744;22;20459;-91
2023/01/14 10:31:03;;;;;;;4.68;1.20;;;;;;;;;;6223074;22;20588;-93
2023/01/14 10:33:29;;;;;;;19.30;2.40;;;;;;;;;;6248053;22;20016;-92
2023/01/14 10:35:57;;;;;;;6.03;1.33;;;;;;;;;;6222942;22;20451;-92
2023/01/14 10:38:28;;;;;;;5.75;1.20;;;;;;;;;;6251134;22;20428;-92
2023/01/14 10:41:05;;;;;;;13.82;1.23;;;;;;;;;;6243895;22;20012;-92
2023/01/14 10:43:34;;;;;;;3.53;1.13;;;;;;;;;;6244313;23;20118;-92
2023/01/14 10:46:01;;;;;;;2.95;1.20;;;;;;;;;;6243685;23;20400;-93
2023/01/14 10:48:29;;;;;;;3.47;1.38;;;;;;;;;;6253554;23;20034;-92
2023/01/14 10:51:18;;;;;;;9.95;1.88;;;;;;;;;;6249055;23;20008;-93
2023/01/14 10:53:44;;;;;;;3.42;1.30;;;;;;;;;;6243879;23;20015;-93
2023/01/14 10:56:11;;;;;;;5.78;1.33;;;;;;;;;;6218827;23;20112;-93
2023/01/14 10:58:41;;;;;;;5.10;0.75;;;;;;;;;;6220190;23;20016;-93
2023/01/14 11:01:09;;;;;;;10.38;1.73;;;;;;;;;;6245815;23;20026;-94
2023/01/14 11:03:40;;;;;;;2.60;1.42;;;;;;;;;;6220995;23;20498;-93
2023/01/14 11:06:07;;;;;;;4.65;1.30;;;;;;;;;;6245543;23;20008;-93
2023/01/14 11:08:37;;;;;;;5.90;2.33;;;;;;;;;;6221206;23;20437;-93
2023/01/14 11:11:08;;;;;;;3.83;1.60;;;;;;;;;;6247267;23;20004;-94
2023/01/14 11:13:44;;;;;;;4.13;0.95;;;;;;;;;;6247922;23;20328;-93
2023/01/14 11:16:24;;;;;;;8.98;1.73;;;;;;;;;;6247638;23;20013;-93
2023/01/14 11:19:01;;;;;;;3.65;1.42;;;;;;;;;;6247321;23;20482;-93
2023/01/14 11:21:29;;;;;;;5.00;1.70;;;;;;;;;;6245356;23;20012;-93
2023/01/14 11:24:07;;;;;;;2.40;0.60;;;;;;;;;;6245765;23;20000;-93
2023/01/14 11:26:56;;;;;;;6.50;1.02;;;;;;;;;;6244586;23;20023;-93
2023/01/14 11:29:24;;;;;;;6.15;1.48;;;;;;;;;;6221372;23;20004;-93
2023/01/14 11:31:51;;;;;;;4.97;0.75;;;;;;;;;;6245309;23;20012;-93
2023/01/14 11:34:50;;;;;;;2.92;0.88;;;;;;;;;;6245443;23;20547;-92
2023/01/14 11:37:17;;;;;;;11.05;1.98;;;;;;;;;;6195291;23;20008;-91
2023/01/14 11:40:01;;;;;;;7.75;1.52;;;;;;;;;;6247922;22;20012;-92
2023/01/14 11:42:27;;;;;;;5.07;1.63;;;;;;;;;;6249209;22;20008;-92
2023/01/14 11:44:58;;;;;;;12.20;1.88;;;;;;;;;;6249418;22;20004;-92
2023/01/14 11:47:29;;;;;;;4.57;1.70;;;;;;;;;;6224285;22;20007;-92
2023/01/14 11:50:12;;;;;;;2.03;0.82;;;;;;;;;;6255054;22;20424;-93
2023/01/14 11:52:38;;;;;;;2.03;0.88;;;;;;;;;;6248983;22;20031;-92
2023/01/14 11:55:11;;;;;;;3.13;1.30;;;;;;;;;;6224536;22;20426;-93
2023/01/14 11:57:37;;;;;;;11.18;1.52;;;;;;;;;;6247914;22;20035;-93
2023/01/14 12:00:03;;;;;;;5.60;1.08;;;;;;;;;;6223562;22;20066;-92
2023/01/14 12:02:32;;;;;;;2.78;1.02;;;;;;;;;;6249012;22;20467;-92
2023/01/14 12:05:01;;;;;;;3.65;1.17;;;;;;;;;;6248628;22;20034;-92
2023/01/14 12:07:47;;;;;;;5.82;1.27;;;;;;;;;;6247210;22;20068;-92
2023/01/14 12:10:43;;;;;;;3.97;1.45;;;;;;;;;;6248435;22;20065;-93
2023/01/14 12:19:01;;;;;;;7.10;1.52;;;;;;;;;;6275848;22;20018;-93
2023/01/14 12:21:32;;;;;;;2.20;0.55;;;;;;;;;;6247765;22;20098;-94
2023/01/14 12:24:01;;;;;;;7.43;1.48;;;;;;;;;;6247422;22;20045;-92
2023/01/14 12:26:32;;;;;;;1.67;0.82;;;;;;;;;;6245882;22;20356;-91
2023/01/14 12:29:03;;;;;;;1.83;0.70;;;;;;;;;;6247319;22;20201;-92
2023/01/14 12:31:35;;;;;;;1.85;0.65;;;;;;;;;;6244838;22;20378;-93
2023/01/14 12:34:15;;;;;;;2.05;0.73;;;;;;;;;;6248664;22;20031;-92
2023/01/14 12:36:49;;;;;;;0.40;0.40;;;;;;;;;;6247340;22;20023;-92
2023/01/14 12:45:41;;;;;;;0.57;0.50;;;;;;;;;;6273979;22;20014;-92
2023/01/14 12:48:10;;;;;;;0.20;0.20;;;;;;;;;;6248392;22;20031;-92
2023/01/14 12:50:42;;;;;;;3.30;0.77;;;;;;;;;;6245988;22;20339;-92
2023/01/14 12:53:16;;;;;;;0.68;0.47;;;;;;;;;;6246632;22;20124;-93
2023/01/14 12:55:45;;;;;;;0.32;0.32;;;;;;;;;;6246535;22;20010;-92
2023/01/14 12:58:17;;;;;;;1.15;0.80;;;;;;;;;;6245159;22;20098;-92
2023/01/14 13:00:49;;;;;;;0.55;0.35;;;;;;;;;;6246385;22;20030;-92
2023/01/14 13:03:20;;;;;;;0.65;0.50;;;;;;;;;;6247151;22;20007;-92
2023/01/14 13:05:46;;;;;;;0.68;0.22;;;;;;;;;;6246565;22;20000;-92
2023/01/14 13:08:27;;;;;;;3.63;1.25;;;;;;;;;;6222607;22;20145;-92
2023/01/14 13:11:05;;;;;;;5.22;1.52;;;;;;;;;;6247476;22;20010;-93
2023/01/14 13:13:36;;;;;;;0.00;0.00;;;;;;;;;;6247738;22;20420;-92
2023/01/14 13:16:04;;;;;;;0.73;0.30;;;;;;;;;;6247927;22;20030;-92
2023/01/14 13:18:30;;;;;;;0.17;0.10;;;;;;;;;;6247218;22;20004;-92
2023/01/14 13:20:58;;;;;;;4.40;0.10;;;;;;;;;;6249417;22;20336;-93
2023/01/14 13:23:37;;;;;;;0.55;0.43;;;;;;;;;;6225028;22;20587;-93
2023/01/14 13:26:29;;;;;;;0.00;0.00;;;;;;;;;;6249885;22;20332;-93
2023/01/14 13:29:14;;;;;;;0.00;0.00;;;;;;;;;;6202838;22;20018;-93
2023/01/14 13:31:40;;;;;;;0.00;0.00;;;;;;;;;;6249273;22;20007;-92
2023/01/14 13:34:21;;;;;;;0.00;0.00;;;;;;;;;;6223494;22;20049;-93
2023/01/14 13:36:48;;;;;;;0.00;0.00;;;;;;;;;;6249603;22;20399;-92
2023/01/14 13:39:21;;;;;;;0.00;0.00;;;;;;;;;;6224327;22;20018;-93
2023/01/14 13:42:02;;;;;;;0.00;0.00;;;;;;;;;;6248620;22;20016;-93
2023/01/14 13:44:28;;;;;;;0.10;0.10;;;;;;;;;;6221769;23;20008;-93
2023/01/14 13:46:59;;;;;;;0.00;0.00;;;;;;;;;;6246014;23;20000;-94
2023/01/14 13:49:25;;;;;;;0.00;0.00;;;;;;;;;;6247780;23;20019;-93
2023/01/14 13:51:57;;;;;;;0.00;0.00;;;;;;;;;;6245768;23;20008;-93
2023/01/14 13:54:28;;;;;;;0.00;0.00;;;;;;;;;;6245514;23;20498;-93
2023/01/14 13:57:08;;;;;;;0.00;0.00;;;;;;;;;;6246661;23;20008;-93
2023/01/14 13:59:36;;;;;;;0.00;0.00;;;;;;;;;;6243448;23;20008;-93
2023/01/14 14:02:02;;;;;;;0.00;0.00;;;;;;;;;;6245024;23;20012;-93
2023/01/14 14:04:47;;;;;;;0.00;0.00;;;;;;;;;;6259440;22;20006;-93
2023/01/14 14:07:33;;;;;;;0.00;0.00;;;;;;;;;;6246721;23;20012;-92
2023/01/14 14:10:00;;;;;;;0.00;0.00;;;;;;;;;;6245947;23;20015;-93
2023/01/14 14:15:25;;;;;;;0.00;0.00;;;;;;;;;;6244887;23;20526;-93
2023/01/14 14:18:00;;;;;;;0.00;0.00;;;;;;;;;;6244360;23;20451;-93
2023/01/14 14:20:38;;;;;;;0.00;0.00;;;;;;;;;;6243110;23;20042;-92
2023/01/14 14:23:06;;;;;;;0.00;0.00;;;;;;;;;;6243108;23;20004;-93
2023/01/14 14:25:39;;;;;;;0.00;0.00;;;;;;;;;;6218216;23;20083;-93
2023/01/14 14:28:12;;;;;;;0.00;0.00;;;;;;;;;;6243096;23;20000;-93
2023/01/14 14:30:47;;;;;;;0.00;0.00;;;;;;;;;;6242005;23;20008;-93
2023/01/14 14:33:14;;;;;;;;;;;;;;;;;;6243325;23;20511;-94
2023/01/14 14:35:43;;;;;;;0.00;0.00;;;;;;;;;;6242956;23;20247;-92
2023/01/14 14:38:28;;;;;;;0.00;0.00;;;;;;;;;;6216255;23;20040;-92
2023/01/14 14:40:54;;;;;;;0.00;0.00;;;;;;;;;;6241707;23;20006;-93
2023/01/14 14:43:28;;;;;;;0.00;0.00;;;;;;;;;;6218204;22;20073;-93
2023/01/14 14:59:38;;;;;;;0.00;0.00;;;;;;;;;;6044860;23;20080;-95
2023/01/14 15:02:27;;;;;;;0.00;0.00;;;;;;;;;;6161485;23;20013;-92
2023/01/14 15:04:55;;;;;;;0.00;0.00;;;;;;;;;;6238687;23;20004;-92
2023/01/14 15:07:22;;;;;;;0.00;0.00;;;;;;;;;;6215223;23;20012;-91
2023/01/14 15:09:48;;;;;;;0.00;0.00;;;;;;;;;;6216713;23;20009;-92
2023/01/14 15:12:19;;;;;;;0.00;0.00;;;;;;;;;;6241085;23;20008;-92
2023/01/14 15:14:57;;;;;;;0.00;0.00;;;;;;;;;;6238729;23;20043;-92
2023/01/14 15:17:23;;;;;;;0.00;0.00;;;;;;;;;;6241237;23;20008;-92
2023/01/14 15:19:50;;;;;;;0.00;0.00;;;;;;;;;;6216265;23;20404;-91
2023/01/14 15:22:20;;;;;;;0.00;0.00;;;;;;;;;;6241085;23;20306;-92
2023/01/14 15:24:51;;;;;;;0.00;0.00;;;;;;;;;;6240817;23;20000;-91
2023/01/14 15:27:21;;;;;;;0.00;0.00;;;;;;;;;;6240397;23;20027;-89
2023/01/14 15:29:58;;;;;;;0.00;0.00;;;;;;;;;;6216275;23;20436;-91
2023/01/14 15:32:26;;;;;;;0.00;0.00;;;;;;;;;;6241147;23;20015;-90
2023/01/14 15:34:52;;;;;;;0.00;0.00;;;;;;;;;;6240541;23;20440;-91
2023/01/14 15:37:18;;;;;;;0.00;0.00;;;;;;;;;;6241004;23;20604;-91
2023/01/14 15:39:44;;;;;;;0.00;0.00;;;;;;;;;;6239266;23;20077;-90
2023/01/14 15:42:26;;;;;;;0.00;0.00;;;;;;;;;;6220797;22;20016;-91
2023/01/14 15:44:53;;;;;;;0.00;0.00;;;;;;;;;;6245614;22;20387;-91
2023/01/14 15:47:20;;;;;;;0.00;0.00;;;;;;;;;;6245193;22;20041;-91
2023/01/14 15:49:47;;;;;;;0.00;0.00;;;;;;;;;;6245551;22;20503;-91
2023/01/14 15:52:29;;;;;;;0.00;0.00;;;;;;;;;;6219509;22;20031;-92
2023/01/14 15:55:05;;;;;;;0.00;0.00;;;;;;;;;;6243813;22;20008;-91
2023/01/14 15:57:39;;;;;;;0.00;0.00;;;;;;;;;;6243254;22;20122;-91
2023/01/14 16:00:28;;;;;;;0.00;0.00;;;;;;;;;;6243275;22;20061;-91
2023/01/14 16:02:56;;;;;;;0.00;0.00;;;;;;;;;;6243957;22;20011;-91
2023/01/14 16:05:34;;;;;;;0.00;0.00;;;;;;;;;;6243284;22;20000;-91
2023/01/14 16:08:06;;;;;;;0.00;0.00;;;;;;;;;;6243723;22;20011;-91
2023/01/14 16:10:32;;;;;;;0.00;0.00;;;;;;;;;;6242527;22;20008;-91
2023/01/14 16:13:02;;;;;;;0.00;0.00;;;;;;;;;;6243449;22;20076;-91
2023/01/14 16:15:31;;;;;;;0.00;0.00;;;;;;;;;;6219401;22;20034;-91
2023/01/14 16:18:23;;;;;;;0.00;0.00;;;;;;;;;;6244013;22;20635;-91
2023/01/14 16:20:52;;;;;;;0.00;0.00;;;;;;;;;;6264792;22;20372;-92
2023/01/14 16:23:19;;;;;;;0.00;0.00;;;;;;;;;;6219890;22;20036;-91
2023/01/14 16:25:45;;;;;;;0.00;0.00;;;;;;;;;;6244035;22;20003;-91
2023/01/14 16:28:11;;;;;;;0.00;0.00;;;;;;;;;;6215333;22;20103;-91
2023/01/14 16:30:37;;;;;;;0.00;0.00;;;;;;;;;;6218862;22;20272;-91
2023/01/14 16:33:03;;;;;;;0.00;0.00;;;;;;;;;;6242583;22;20099;-91
2023/01/14 16:35:29;;;;;;;0.00;0.00;;;;;;;;;;6217977;22;20015;-91
2023/01/14 16:37:58;;;;;;;0.00;0.00;;;;;;;;;;6243243;22;20004;-90
2023/01/14 16:40:30;;;;;;;0.00;0.00;;;;;;;;;;6244090;22;20416;-91
2023/01/14 16:42:56;;;;;;;0.00;0.00;;;;;;;;;;6242942;22;20792;-91
2023/01/14 16:45:24;;;;;;;0.00;0.00;;;;;;;;;;6245592;22;20008;-91
2023/01/14 16:47:51;;;;;;;0.00;0.00;;;;;;;;;;6244196;22;19999;-91
2023/01/14 16:50:17;;;;;;;0.00;0.00;;;;;;;;;;6245093;22;20114;-90
2023/01/14 16:52:44;;;;;;;0.45;0.45;;;;;;;;;;6243604;22;20019;-91
2023/01/14 16:55:31;;;;;;;0.00;0.00;;;;;;;;;;6220549;22;20365;-92
2023/01/14 16:58:05;;;;;;;0.00;0.00;;;;;;;;;;6246024;22;20086;-92
2023/01/14 17:00:32;;;;;;;0.00;0.00;;;;;;;;;;6248252;22;20015;-94
2023/01/14 17:02:58;;;;;;;0.00;0.00;;;;;;;;;;6223990;22;20003;-95
2023/01/14 17:05:26;;;;;;;0.00;0.00;;;;;;;;;;6249449;22;20008;-93
2023/01/14 17:07:52;;;;;;;0.00;0.00;;;;;;;;;;6223313;22;20462;-94
2023/01/14 17:10:20;;;;;;;0.00;0.00;;;;;;;;;;6249700;22;20398;-92
2023/01/14 17:12:55;;;;;;;0.00;0.00;;;;;;;;;;6250421;22;20035;-96
2023/01/14 17:15:24;;;;;;;0.00;0.00;;;;;;;;;;6249616;22;20843;-91
2023/01/14 17:17:50;;;;;;;0.00;0.00;;;;;;;;;;6226461;22;20008;-95
2023/01/14 17:20:26;;;;;;;0.00;0.00;;;;;;;;;;6225501;22;20011;-95
2023/01/14 17:22:53;;;;;;;0.00;0.00;;;;;;;;;;6226268;22;20003;-93
2023/01/14 17:25:25;;;;;;;0.00;0.00;;;;;;;;;;6248463;22;20068;-93
2023/01/14 17:27:52;;;;;;;0.00;0.00;;;;;;;;;;6247502;22;20004;-94
2023/01/14 17:30:19;;;;;;;0.00;0.00;;;;;;;;;;6248818;22;20012;-93
2023/01/14 17:32:54;;;;;;;0.00;0.00;;;;;;;;;;6248462;22;20035;-94
2023/01/14 17:35:26;;;;;;;0.00;0.00;;;;;;;;;;6248965;22;20012;-94
2023/01/14 17:38:04;;;;;;;0.00;0.00;;;;;;;;;;6249484;22;20028;-94
2023/01/14 17:40:33;;;;;;;0.00;0.00;;;;;;;;;;6225250;22;20028;-94
2023/01/14 17:43:11;;;;;;;0.00;0.00;;;;;;;;;;6248552;22;20008;-94
2023/01/14 17:45:41;;;;;;;0.00;0.00;;;;;;;;;;6188755;23;20012;-94
2023/01/14 17:48:07;;;;;;;0.00;0.00;;;;;;;;;;6213785;23;20012;-94
2023/01/14 17:50:36;;;;;;;0.52;0.52;;;;;;;;;;6188013;23;20102;-93